Time;durP1;ratioP1;P1;durP2;ratioP2;P2;SDS_P1;SDS_P2;PMS_P1;PMS_P2;Temp;Humidity;BMP_temperature;BMP_pressure;BME280_temperature;BME280_humidity;BME280_pressure;Samples;Min_cycle;Max_cycle;Signal;HPM_P1;HPM_P2
2022/04/19 00:00:09;;;;;;;3.25;1.70;;;8.20;99.90;;;;;;6309985;28;20270;-68
2022/04/19 00:03:22;;;;;;;5.95;2.08;;;8.20;99.90;;;;;;6310413;28;20467;-68
2022/04/19 00:06:28;;;;;;;3.63;1.42;;;8.20;99.90;;;;;;6310850;28;20271;-67
2022/04/19 00:09:33;;;;;;;1.23;1.23;;;8.00;99.90;;;;;;6308550;28;20294;-67
2022/04/19 00:12:38;;;;;;;1.45;1.38;;;8.10;99.90;;;;;;6285950;28;20295;-66
2022/04/19 00:15:44;;;;;;;1.75;1.30;;;8.10;99.90;;;;;;6286432;28;20279;-67
2022/04/19 00:18:50;;;;;;;1.50;1.40;;;8.00;99.90;;;;;;6285687;28;20475;-67
2022/04/19 00:21:56;;;;;;;2.97;1.33;;;8.00;99.90;;;;;;6285987;28;20533;-67
2022/04/19 00:25:01;;;;;;;1.10;1.10;;;8.10;99.90;;;;;;6285530;28;20294;-67
2022/04/19 00:28:06;;;;;;;1.63;1.55;;;8.10;99.90;;;;;;6300891;28;20294;-66
2022/04/19 00:31:13;;;;;;;1.25;1.25;;;8.10;99.90;;;;;;6310825;28;20456;-67
2022/04/19 00:34:20;;;;;;;6.03;1.65;;;8.20;99.90;;;;;;6310278;28;20298;-67
2022/04/19 00:37:26;;;;;;;1.48;1.38;;;8.10;99.90;;;;;;6310225;28;20276;-67
2022/04/19 00:40:32;;;;;;;1.27;1.27;;;8.10;99.90;;;;;;6310445;28;20266;-67
2022/04/19 00:43:37;;;;;;;1.17;1.17;;;8.10;99.90;;;;;;6310524;28;20297;-67
2022/04/19 00:46:42;;;;;;;1.15;1.15;;;8.00;99.90;;;;;;6310957;28;20270;-67
2022/04/19 00:49:48;;;;;;;1.30;1.30;;;8.10;99.90;;;;;;6313412;28;20298;-67
2022/04/19 00:52:55;;;;;;;1.50;1.23;;;8.20;99.90;;;;;;6315218;28;20299;-68
2022/04/19 00:56:04;;;;;;;2.88;1.20;;;8.10;99.90;;;;;;6315493;28;20270;-68
2022/04/19 00:59:11;;;;;;;1.25;1.23;;;8.00;99.90;;;;;;6313181;28;20294;-66
2022/04/19 01:02:17;;;;;;;2.05;1.52;;;8.00;99.90;;;;;;6314932;28;20266;-67
2022/04/19 01:05:25;;;;;;;1.27;1.20;;;7.90;99.90;;;;;;6314140;28;20294;-67
2022/04/19 01:08:31;;;;;;;1.85;1.35;;;7.80;99.90;;;;;;6313290;28;20294;-68
2022/04/19 01:15:05;;;;;;;3.92;1.30;;;7.60;99.90;;;;;;6288802;28;20307;-66
2022/04/19 01:18:25;;;;;;;1.30;1.20;;;7.80;99.90;;;;;;6277843;28;20579;-68
2022/04/19 01:21:48;;;;;;;1.85;1.20;;;7.70;99.90;;;;;;6263812;28;20272;-68
2022/04/19 01:25:00;;;;;;;3.15;1.33;;;7.70;99.90;;;;;;6279956;28;20299;-68
2022/04/19 01:28:07;;;;;;;1.67;1.30;;;7.70;99.90;;;;;;6262937;28;20303;-67
2022/04/19 01:31:13;;;;;;;1.60;1.30;;;7.70;99.90;;;;;;6263713;28;20272;-67
2022/04/19 01:34:24;;;;;;;1.52;1.38;;;7.50;99.90;;;;;;6298031;28;20299;-67
2022/04/19 01:37:36;;;;;;;3.72;1.40;;;7.50;99.90;;;;;;6304664;28;20380;-67
2022/04/19 01:40:42;;;;;;;1.98;1.00;;;7.40;99.90;;;;;;6288306;28;20267;-67
2022/04/19 01:44:06;;;;;;;1.23;1.20;;;7.40;99.90;;;;;;6287882;28;20458;-67
2022/04/19 01:47:13;;;;;;;1.40;1.30;;;7.30;99.90;;;;;;6287877;28;20455;-68
2022/04/19 01:50:24;;;;;;;1.27;1.27;;;7.40;99.90;;;;;;6288103;28;20275;-67
2022/04/19 01:53:31;;;;;;;1.20;1.20;;;7.20;99.90;;;;;;6287911;28;20586;-67
2022/04/19 01:56:37;;;;;;;3.70;1.50;;;7.20;99.90;;;;;;6288388;28;20271;-67
2022/04/19 01:59:51;;;;;;;1.23;1.15;;;7.10;99.90;;;;;;6286976;28;20298;-67
2022/04/19 02:03:06;;;;;;;2.20;1.20;;;7.30;99.90;;;;;;6286872;28;20471;-67
2022/04/19 02:06:14;;;;;;;1.73;1.50;;;7.20;99.90;;;;;;6287293;28;20279;-66
2022/04/19 02:09:22;;;;;;;1.88;1.35;;;7.10;99.90;;;;;;6287102;28;20487;-67
2022/04/19 02:12:28;;;;;;;2.45;1.23;;;7.00;99.90;;;;;;6262488;28;20291;-67
2022/04/19 02:15:59;;;;;;;2.93;1.40;;;7.00;99.60;;;;;;6263468;28;20291;-67
2022/04/19 02:19:04;;;;;;;1.17;1.17;;;6.90;99.10;;;;;;6262456;28;20304;-67
2022/04/19 02:22:11;;;;;;;1.42;1.30;;;6.90;98.80;;;;;;6263335;28;20271;-67
2022/04/19 02:25:19;;;;;;;1.25;1.25;;;6.90;98.60;;;;;;6263945;28;20283;-67
2022/04/19 02:28:25;;;;;;;1.35;1.35;;;6.80;98.90;;;;;;6261621;28;20299;-68
2022/04/19 02:31:47;;;;;;;2.80;1.50;;;6.80;98.50;;;;;;6262552;28;20276;-67
2022/04/19 02:34:54;;;;;;;2.20;1.50;;;6.80;98.50;;;;;;6294563;28;20303;-67
2022/04/19 02:38:00;;;;;;;1.50;1.40;;;6.80;98.60;;;;;;6263273;28;20314;-67
2022/04/19 02:41:13;;;;;;;1.30;1.30;;;6.80;98.50;;;;;;6262665;28;20274;-67
2022/04/19 02:44:24;;;;;;;1.37;1.37;;;6.60;98.70;;;;;;6261534;28;20303;-68
2022/04/19 02:47:51;;;;;;;1.27;1.27;;;6.70;98.60;;;;;;6263041;28;20578;-67
2022/04/19 02:50:57;;;;;;;1.47;1.20;;;6.70;98.10;;;;;;6294810;28;20276;-67
2022/04/19 02:54:02;;;;;;;1.37;1.27;;;6.70;98.40;;;;;;6262909;28;20298;-67
2022/04/19 02:57:09;;;;;;;1.93;1.53;;;6.70;98.20;;;;;;6261151;28;20272;-68
2022/04/19 03:00:16;;;;;;;2.47;1.67;;;6.70;98.20;;;;;;6263021;28;20275;-68
2022/04/19 03:03:22;;;;;;;1.50;1.43;;;6.70;98.70;;;;;;6314498;28;20290;-68
2022/04/19 03:06:28;;;;;;;3.27;1.90;;;6.70;98.90;;;;;;6319583;28;20275;-68
2022/04/19 03:09:35;;;;;;;1.33;1.33;;;6.70;99.30;;;;;;6285930;28;20307;-68
2022/04/19 03:12:42;;;;;;;1.40;1.40;;;6.60;99.80;;;;;;6286063;28;20302;-66
2022/04/19 03:15:56;;;;;;;3.13;1.50;;;6.60;99.70;;;;;;6285875;28;20294;-67
2022/04/19 03:19:03;;;;;;;1.50;1.50;;;6.60;99.80;;;;;;6285498;28;20296;-67
2022/04/19 03:22:11;;;;;;;3.47;1.60;;;6.50;99.90;;;;;;6285483;28;20279;-68
2022/04/19 03:28:47;;;;;;;1.33;1.33;;;6.50;99.90;;;;;;6318275;28;20327;-67
2022/04/19 03:31:54;;;;;;;3.70;1.40;;;6.50;99.90;;;;;;6285517;28;20349;-67
2022/04/19 03:35:03;;;;;;;2.00;1.43;;;6.50;99.90;;;;;;6284737;28;20286;-67
2022/04/19 03:38:10;;;;;;;1.70;1.70;;;6.50;99.90;;;;;;6286714;28;20299;-66
2022/04/19 03:41:15;;;;;;;3.70;1.63;;;6.50;99.90;;;;;;6285996;28;20275;-67
2022/04/19 03:44:29;;;;;;;1.73;1.70;;;6.50;99.90;;;;;;6285470;28;20605;-67
2022/04/19 03:47:35;;;;;;;1.90;1.60;;;6.60;99.90;;;;;;6285072;28;20294;-67
2022/04/19 03:50:41;;;;;;;1.60;1.60;;;6.60;99.90;;;;;;6285402;28;20278;-67
2022/04/19 03:53:46;;;;;;;2.60;1.50;;;6.70;99.90;;;;;;6286675;28;20294;-67
2022/04/19 03:56:52;;;;;;;1.33;1.33;;;6.60;99.90;;;;;;6285546;28;20291;-67
2022/04/19 03:59:59;;;;;;;1.40;1.40;;;6.60;99.90;;;;;;6286114;28;20294;-68
2022/04/19 04:03:15;;;;;;;1.50;1.50;;;6.60;99.90;;;;;;6285737;28;20287;-67
2022/04/19 04:06:21;;;;;;;1.73;1.63;;;6.50;99.90;;;;;;6285184;28;20278;-67
2022/04/19 04:09:32;;;;;;;1.70;1.60;;;6.60;99.90;;;;;;6284833;28;20338;-68
2022/04/19 04:12:38;;;;;;;1.90;1.90;;;6.60;99.90;;;;;;6317541;28;20291;-67
2022/04/19 04:15:44;;;;;;;1.43;1.43;;;6.60;99.90;;;;;;6318076;28;20290;-67
2022/04/19 04:18:50;;;;;;;1.67;1.60;;;6.70;99.90;;;;;;6285700;28;20295;-67
2022/04/19 04:21:55;;;;;;;1.57;1.57;;;6.70;99.80;;;;;;6317582;28;20267;-67
2022/04/19 04:25:02;;;;;;;2.83;1.55;;;6.70;99.50;;;;;;6283878;28;20318;-67
2022/04/19 04:28:12;;;;;;;4.30;1.70;;;6.70;99.00;;;;;;6285887;28;20474;-67
2022/04/19 04:31:24;;;;;;;5.53;1.80;;;6.70;99.50;;;;;;6317900;28;20271;-68
2022/04/19 04:34:30;;;;;;;3.73;1.80;;;6.80;99.50;;;;;;6284156;28;20307;-67
2022/04/19 04:37:37;;;;;;;2.07;1.83;;;6.70;99.80;;;;;;6316539;28;20294;-68
2022/04/19 04:40:43;;;;;;;2.67;1.80;;;6.70;99.90;;;;;;6285223;28;20271;-67
2022/04/19 04:43:50;;;;;;;2.57;1.80;;;6.70;99.60;;;;;;6317499;28;20603;-68
2022/04/19 04:50:21;;;;;;;2.40;2.00;;;6.70;99.30;;;;;;6300595;28;20279;-67
2022/04/19 04:53:28;;;;;;;3.10;1.77;;;6.70;99.40;;;;;;6285851;28;20298;-67
2022/04/19 04:56:48;;;;;;;7.73;1.70;;;6.70;99.40;;;;;;6284270;28;20326;-67
2022/04/19 04:59:54;;;;;;;4.33;1.80;;;6.90;97.70;;;;;;6317394;28;20298;-68
2022/04/19 05:03:03;;;;;;;10.87;1.93;;;7.00;96.40;;;;;;6284038;28;20290;-68
2022/04/19 05:06:10;;;;;;;2.00;1.90;;;7.00;94.90;;;;;;6284360;28;20280;-67
2022/04/19 05:09:15;;;;;;;1.63;1.63;;;7.10;92.70;;;;;;6285146;28;20295;-67
2022/04/19 05:12:21;;;;;;;4.57;1.70;;;7.20;89.80;;;;;;6284959;28;20310;-67
2022/04/19 05:15:26;;;;;;;4.03;1.80;;;7.30;89.90;;;;;;6284389;28;20283;-68
2022/04/19 05:18:34;;;;;;;4.43;1.80;;;7.40;86.90;;;;;;6283490;28;20367;-67
2022/04/19 05:21:40;;;;;;;2.10;1.90;;;7.40;84.30;;;;;;6284035;28;20275;-69
2022/04/19 05:24:45;;;;;;;2.50;1.43;;;7.40;84.60;;;;;;6317003;28;20300;-67
2022/04/19 05:27:51;;;;;;;1.40;1.40;;;7.50;80.60;;;;;;6283394;28;20466;-68
2022/04/19 05:30:57;;;;;;;5.47;1.70;;;7.60;78.90;;;;;;6284285;28;20275;-67
2022/04/19 05:34:04;;;;;;;2.75;1.40;;;7.60;80.00;;;;;;6284658;28;20291;-67
2022/04/19 05:37:09;;;;;;;1.70;1.60;;;7.70;76.00;;;;;;6287301;28;20295;-66
2022/04/19 05:40:15;;;;;;;5.07;1.70;;;7.80;74.50;;;;;;6288256;28;20275;-67
2022/04/19 05:43:21;;;;;;;4.15;1.70;;;7.80;75.70;;;;;;6287207;28;20610;-67
2022/04/19 05:46:28;;;;;;;2.90;1.67;;;7.90;75.90;;;;;;6288181;28;20279;-66
2022/04/19 05:49:35;;;;;;;2.50;1.48;;;7.80;77.60;;;;;;6287202;28;20315;-67
2022/04/19 05:52:40;;;;;;;8.18;1.75;;;8.00;74.20;;;;;;6287080;28;20291;-67
2022/04/19 05:55:51;;;;;;;9.18;1.80;;;8.00;76.10;;;;;;6287662;28;20271;-67
2022/04/19 05:58:56;;;;;;;1.55;1.33;;;8.00;74.50;;;;;;6320553;28;20306;-67
2022/04/19 06:05:27;;;;;;;1.40;1.30;;;8.30;70.00;;;;;;6287644;28;20276;-67
2022/04/19 06:08:32;;;;;;;2.78;1.30;;;8.40;68.70;;;;;;6287184;28;20602;-68
2022/04/19 06:11:43;;;;;;;6.90;1.80;;;8.40;66.70;;;;;;6287586;28;20268;-67
2022/04/19 06:14:49;;;;;;;1.20;1.20;;;8.50;65.90;;;;;;6319562;28;20290;-67
2022/04/19 06:17:57;;;;;;;6.90;1.88;;;8.60;66.00;;;;;;6286929;28;20315;-67
2022/04/19 06:21:41;;;;;;;1.58;1.17;;;8.60;66.30;;;;;;6284086;28;20275;-68
2022/04/19 06:24:47;;;;;;;3.15;1.60;;;8.80;65.20;;;;;;6302704;28;20299;-67
2022/04/19 06:27:57;;;;;;;24.40;2.70;;;8.90;65.80;;;;;;6288032;28;20563;-67
2022/04/19 06:31:06;;;;;;;13.85;1.90;;;9.00;67.00;;;;;;6286622;28;20283;-67
2022/04/19 06:34:12;;;;;;;8.25;1.98;;;9.10;66.20;;;;;;6319259;28;20299;-67
2022/04/19 06:37:35;;;;;;;13.35;2.00;;;9.30;65.70;;;;;;6319295;28;20299;-67
2022/04/19 06:40:49;;;;;;;10.75;1.80;;;9.50;69.30;;;;;;6286798;28;20271;-67
2022/04/19 06:43:57;;;;;;;9.73;1.90;;;9.70;69.30;;;;;;6287784;28;20302;-67
2022/04/19 06:47:07;;;;;;;5.00;1.30;;;9.90;64.40;;;;;;6319296;28;20287;-67
2022/04/19 06:50:13;;;;;;;3.40;1.27;;;10.30;61.10;;;;;;6286649;28;20276;-68
2022/04/19 06:53:22;;;;;;;3.20;1.30;;;10.70;59.40;;;;;;6319010;28;20299;-67
2022/04/19 06:56:35;;;;;;;1.45;1.27;;;11.00;57.50;;;;;;6286167;28;20276;-67
2022/04/19 06:59:41;;;;;;;7.28;1.20;;;11.10;57.10;;;;;;6318716;28;20299;-67
2022/04/19 07:02:48;;;;;;;12.25;1.60;;;10.90;56.30;;;;;;6301935;28;20286;-68
2022/04/19 07:06:12;;;;;;;8.82;1.83;;;11.00;58.10;;;;;;6287227;28;20267;-67
2022/04/19 07:09:19;;;;;;;3.17;1.70;;;11.00;57.00;;;;;;6318416;28;20303;-66
2022/04/19 07:12:25;;;;;;;14.23;1.70;;;11.00;56.90;;;;;;6293493;28;20291;-68
2022/04/19 07:15:41;;;;;;;7.70;1.83;;;11.00;57.10;;;;;;6277953;28;20276;-68
2022/04/19 07:18:46;;;;;;;4.75;1.30;;;11.00;57.90;;;;;;6262321;28;20487;-67
2022/04/19 07:28:51;;;;;;;1.95;1.20;;;11.20;57.90;;;;;;6276818;28;20488;-68
2022/04/19 07:31:56;;;;;;;6.22;1.52;;;11.20;57.60;;;;;;6262101;28;20267;-70
2022/04/19 07:35:23;;;;;;;9.27;2.05;;;11.20;59.00;;;;;;6272114;28;20271;-68
2022/04/19 07:38:29;;;;;;;10.48;1.83;;;11.20;59.20;;;;;;6300863;28;20303;-67
2022/04/19 07:41:45;;;;;;;2.17;1.33;;;11.20;58.50;;;;;;6286197;28;20271;-67
2022/04/19 07:44:53;;;;;;;1.23;1.23;;;11.20;58.70;;;;;;6284805;28;20295;-68
2022/04/19 07:47:58;;;;;;;1.88;1.40;;;11.20;58.50;;;;;;6284943;28;20291;-68
2022/04/19 07:51:04;;;;;;;19.55;2.30;;;11.30;59.20;;;;;;6286683;28;20274;-69
2022/04/19 07:54:11;;;;;;;6.10;1.40;;;11.30;57.70;;;;;;6284791;28;20295;-67
2022/04/19 07:57:20;;;;;;;2.38;1.20;;;11.30;57.90;;;;;;6284228;28;20278;-67
2022/04/19 08:00:28;;;;;;;9.77;1.50;;;11.30;58.40;;;;;;6285249;28;20299;-67
2022/04/19 08:03:35;;;;;;;2.50;1.23;;;11.40;57.20;;;;;;6284064;28;20586;-67
2022/04/19 08:06:40;;;;;;;1.35;1.35;;;11.30;56.80;;;;;;6301297;28;20272;-67
2022/04/19 08:09:46;;;;;;;1.30;1.30;;;11.30;56.70;;;;;;6286865;28;20294;-67
2022/04/19 08:12:53;;;;;;;1.67;1.50;;;11.30;56.40;;;;;;6309114;28;20286;-66
2022/04/19 08:15:59;;;;;;;2.17;1.60;;;11.20;56.30;;;;;;6309121;28;20274;-67
2022/04/19 08:19:05;;;;;;;42.13;4.60;;;11.20;57.00;;;;;;6310217;28;20295;-68
2022/04/19 08:22:12;;;;;;;4.38;2.00;;;11.30;56.80;;;;;;6308497;28;20460;-68
2022/04/19 08:25:24;;;;;;;7.22;1.85;;;11.40;55.50;;;;;;6309000;28;20271;-68
2022/04/19 08:28:32;;;;;;;2.60;1.40;;;11.40;55.80;;;;;;6310787;28;20307;-68
2022/04/19 08:31:38;;;;;;;2.38;1.17;;;11.40;56.20;;;;;;6293012;28;20531;-68
2022/04/19 08:34:45;;;;;;;1.52;1.20;;;11.50;56.90;;;;;;6291923;28;20597;-68
2022/04/19 08:37:51;;;;;;;2.47;1.10;;;11.60;56.30;;;;;;6292053;28;20435;-68
2022/04/19 08:41:00;;;;;;;1.20;1.20;;;11.50;56.10;;;;;;6310695;28;20285;-68
2022/04/19 08:44:10;;;;;;;1.10;1.10;;;11.50;56.50;;;;;;6291957;28;20290;-68
2022/04/19 08:47:16;;;;;;;1.10;1.10;;;11.50;56.60;;;;;;6309794;28;20271;-68
2022/04/19 08:50:22;;;;;;;1.83;1.10;;;11.50;54.40;;;;;;6310439;28;20380;-68
2022/04/19 09:00:16;;;;;;;1.95;1.35;;;11.60;55.70;;;;;;6309748;28;20294;-68
2022/04/19 09:03:22;;;;;;;1.50;1.30;;;11.70;55.70;;;;;;6309796;28;20295;-68
2022/04/19 09:06:53;;;;;;;3.25;1.10;;;11.60;55.40;;;;;;6310374;28;20270;-68
2022/04/19 09:10:00;;;;;;;1.75;1.13;;;11.70;56.10;;;;;;6305985;28;20606;-67
2022/04/19 09:13:07;;;;;;;0.93;0.93;;;11.70;57.20;;;;;;6289550;28;20290;-67
2022/04/19 09:16:14;;;;;;;0.98;0.98;;;11.60;56.90;;;;;;6289897;28;20432;-67
2022/04/19 09:19:28;;;;;;;1.10;1.10;;;11.60;56.70;;;;;;6289364;28;20295;-68
2022/04/19 09:22:34;;;;;;;1.63;1.00;;;11.60;57.00;;;;;;6289003;28;20311;-67
2022/04/19 09:25:39;;;;;;;24.98;2.28;;;11.70;56.70;;;;;;6289249;28;20271;-67
2022/04/19 09:28:44;;;;;;;3.42;1.42;;;11.70;56.10;;;;;;6309727;28;20322;-68
2022/04/19 09:31:54;;;;;;;3.28;1.55;;;11.80;56.00;;;;;;6314635;28;20278;-68
2022/04/19 09:34:59;;;;;;;1.88;1.20;;;11.90;56.20;;;;;;6313628;28;20373;-67
2022/04/19 09:38:07;;;;;;;1.13;1.13;;;12.00;56.70;;;;;;6313625;28;20295;-68
2022/04/19 09:41:17;;;;;;;3.85;1.08;;;12.10;56.00;;;;;;6314208;28;20290;-67
2022/04/19 09:44:32;;;;;;;15.38;1.30;;;12.10;54.80;;;;;;6313830;28;20294;-67
2022/04/19 09:47:52;;;;;;;8.30;1.13;;;12.10;53.80;;;;;;6313762;28;20305;-67
2022/04/19 09:51:02;;;;;;;6.78;1.20;;;12.20;53.40;;;;;;6314189;28;20270;-67
2022/04/19 09:54:22;;;;;;;10.20;1.10;;;12.30;51.70;;;;;;6313708;28;20299;-66
2022/04/19 09:57:28;;;;;;;2.60;1.20;;;12.30;51.40;;;;;;6313473;28;20294;-68
2022/04/19 10:00:33;;;;;;;3.45;1.00;;;12.30;51.80;;;;;;6313842;28;20589;-68
2022/04/19 10:10:30;;;;;;;1.10;1.10;;;12.50;49.30;;;;;;6313790;28;20267;-68
2022/04/19 10:13:41;;;;;;;2.65;1.10;;;12.50;49.30;;;;;;6313195;28;20298;-68
2022/04/19 10:16:49;;;;;;;6.65;1.10;;;12.60;49.20;;;;;;6313726;28;20267;-69
2022/04/19 10:19:58;;;;;;;3.00;1.20;;;12.70;49.60;;;;;;6312852;28;20294;-68
2022/04/19 10:23:05;;;;;;;5.68;1.42;;;12.70;47.20;;;;;;6312988;28;20290;-69
2022/04/19 10:26:20;;;;;;;4.30;1.35;;;12.80;46.90;;;;;;6313192;28;20267;-68
2022/04/19 10:29:28;;;;;;;0.90;0.90;;;12.80;47.30;;;;;;6312442;28;20290;-69
2022/04/19 10:32:34;;;;;;;2.63;1.30;;;12.80;47.40;;;;;;6312446;28;20425;-69
2022/04/19 10:36:12;;;;;;;2.05;1.10;;;12.80;47.00;;;;;;6312819;28;20270;-69
2022/04/19 10:39:24;;;;;;;2.70;1.10;;;12.90;46.70;;;;;;6312256;28;20295;-67
2022/04/19 10:42:32;;;;;;;10.75;1.35;;;13.00;47.20;;;;;;6312097;28;20429;-67
2022/04/19 10:45:38;;;;;;;1.48;1.30;;;13.00;46.80;;;;;;6312478;28;20266;-67
2022/04/19 10:49:23;;;;;;;1.02;1.00;;;13.00;47.30;;;;;;6297354;28;20303;-68
2022/04/19 10:52:52;;;;;;;2.50;1.10;;;13.10;47.40;;;;;;6262505;28;20556;-67
2022/04/19 10:56:05;;;;;;;1.13;1.00;;;13.20;47.30;;;;;;6262935;28;20271;-68
2022/04/19 10:59:21;;;;;;;5.90;0.98;;;13.10;47.10;;;;;;6261862;28;20481;-68
2022/04/19 11:02:36;;;;;;;4.13;0.93;;;13.30;46.90;;;;;;6261884;28;20296;-68
2022/04/19 11:05:44;;;;;;;0.80;0.80;;;13.30;46.50;;;;;;6262400;28;20272;-67
2022/04/19 11:09:22;;;;;;;7.20;1.13;;;13.30;45.90;;;;;;6262160;28;20287;-67
2022/04/19 11:12:58;;;;;;;1.75;1.02;;;13.50;45.90;;;;;;6261081;28;20480;-67
2022/04/19 11:16:11;;;;;;;1.05;1.00;;;13.50;45.80;;;;;;6262191;28;20272;-68
2022/04/19 11:19:22;;;;;;;3.83;1.10;;;13.50;46.00;;;;;;6261967;28;20310;-68
2022/04/19 11:22:48;;;;;;;4.18;1.30;;;13.50;45.80;;;;;;6261594;28;20291;-67
2022/04/19 11:25:55;;;;;;;1.85;1.00;;;13.60;45.50;;;;;;6262073;28;20528;-68
2022/04/19 11:29:17;;;;;;;0.90;0.90;;;13.60;45.80;;;;;;6282042;28;20306;-67
2022/04/19 11:32:26;;;;;;;1.00;1.00;;;13.60;45.60;;;;;;6285779;28;20581;-68
2022/04/19 11:35:32;;;;;;;3.35;1.05;;;13.60;46.60;;;;;;6287065;28;20272;-68
2022/04/19 11:38:43;;;;;;;1.00;1.00;;;13.60;46.70;;;;;;6286674;28;20383;-67
2022/04/19 11:48:44;;;;;;;5.38;1.00;;;13.80;47.80;;;;;;6286333;28;20295;-68
2022/04/19 11:51:52;;;;;;;4.38;1.30;;;13.80;48.30;;;;;;6286714;28;20275;-68
2022/04/19 11:54:57;;;;;;;1.05;0.93;;;13.80;48.40;;;;;;6285629;28;20469;-67
2022/04/19 11:58:05;;;;;;;1.65;1.23;;;13.80;48.80;;;;;;6285991;28;20290;-67
2022/04/19 12:01:12;;;;;;;1.30;1.20;;;13.90;48.60;;;;;;6286315;28;20275;-67
2022/04/19 12:04:18;;;;;;;5.00;1.20;;;14.00;49.00;;;;;;6285517;28;20322;-68
2022/04/19 12:07:25;;;;;;;3.08;1.10;;;14.00;48.70;;;;;;6285549;28;20290;-68
2022/04/19 12:10:32;;;;;;;2.42;1.10;;;14.00;49.30;;;;;;6295254;28;20271;-67
2022/04/19 12:13:39;;;;;;;1.65;1.10;;;14.00;49.50;;;;;;6309983;28;20307;-67
2022/04/19 12:16:44;;;;;;;1.45;1.40;;;14.00;50.00;;;;;;6310988;28;20562;-67
2022/04/19 12:20:00;;;;;;;1.70;1.60;;;14.00;50.20;;;;;;6308888;28;20293;-67
2022/04/19 12:23:05;;;;;;;3.83;1.27;;;14.00;50.60;;;;;;6310180;28;20294;-68
2022/04/19 12:26:12;;;;;;;6.13;1.30;;;14.10;50.60;;;;;;6310642;28;20275;-67
2022/04/19 12:29:18;;;;;;;1.20;1.20;;;14.10;50.90;;;;;;6309826;28;20301;-67
2022/04/19 12:32:24;;;;;;;2.28;1.10;;;14.10;50.90;;;;;;6309722;28;20290;-68
2022/04/19 12:35:33;;;;;;;1.83;1.20;;;14.10;51.00;;;;;;6310195;28;20274;-67
2022/04/19 12:38:39;;;;;;;1.48;1.48;;;14.10;51.40;;;;;;6309860;28;20378;-67
2022/04/19 12:41:46;;;;;;;4.40;1.40;;;14.10;51.50;;;;;;6310530;28;20266;-68
2022/04/19 12:45:06;;;;;;;1.15;1.15;;;14.20;51.20;;;;;;6313455;28;20294;-68
2022/04/19 12:48:21;;;;;;;5.90;1.55;;;14.30;51.20;;;;;;6315300;28;20298;-68
2022/04/19 12:51:26;;;;;;;1.00;1.00;;;14.20;51.10;;;;;;6315698;28;20270;-68
2022/04/19 12:54:39;;;;;;;3.25;1.52;;;14.30;51.50;;;;;;6314827;28;20353;-68
2022/04/19 12:57:45;;;;;;;1.33;1.23;;;14.30;51.50;;;;;;6315001;28;20294;-68
2022/04/19 13:00:52;;;;;;;4.65;1.42;;;14.30;51.30;;;;;;6315253;28;20270;-68
2022/04/19 13:03:57;;;;;;;2.05;1.50;;;14.40;51.10;;;;;;6314649;28;20297;-68
2022/04/19 13:14:00;;;;;;;1.30;1.30;;;14.40;51.80;;;;;;6237993;28;20296;-68
2022/04/19 13:17:13;;;;;;;1.30;1.30;;;14.40;52.30;;;;;;6290872;28;20270;-68
2022/04/19 13:20:22;;;;;;;1.40;1.40;;;14.40;53.10;;;;;;6315095;28;20274;-68
2022/04/19 13:23:28;;;;;;;3.17;1.50;;;14.40;53.50;;;;;;6313940;28;20405;-68
2022/04/19 13:26:34;;;;;;;2.15;1.50;;;14.40;53.60;;;;;;6314407;28;20270;-68
2022/04/19 13:29:45;;;;;;;1.10;1.10;;;14.40;53.90;;;;;;6314353;28;20472;-68
2022/04/19 13:32:52;;;;;;;2.40;1.30;;;14.50;53.20;;;;;;6314196;28;20294;-68
2022/04/19 13:35:57;;;;;;;1.13;1.13;;;14.50;53.50;;;;;;6314255;28;20427;-68
2022/04/19 13:39:02;;;;;;;6.18;1.50;;;14.50;53.50;;;;;;6313749;28;20302;-68
2022/04/19 13:42:08;;;;;;;4.13;1.48;;;14.50;53.20;;;;;;6313426;28;20275;-68
2022/04/19 13:45:13;;;;;;;1.20;1.20;;;14.60;53.30;;;;;;6313655;28;20290;-68
2022/04/19 13:48:20;;;;;;;3.25;1.40;;;14.50;54.20;;;;;;6313796;28;20488;-68
2022/04/19 13:51:25;;;;;;;1.50;1.50;;;14.50;53.80;;;;;;6313528;28;20271;-67
2022/04/19 13:54:31;;;;;;;7.30;1.55;;;14.50;55.30;;;;;;6313550;28;20488;-67
2022/04/19 13:57:36;;;;;;;5.72;1.60;;;14.60;55.30;;;;;;6312637;28;20295;-67
2022/04/19 14:00:42;;;;;;;1.30;1.30;;;14.60;55.40;;;;;;6313600;28;20467;-68
2022/04/19 14:03:49;;;;;;;1.30;1.30;;;14.50;55.90;;;;;;6313051;28;20294;-67
2022/04/19 14:06:54;;;;;;;5.55;1.35;;;14.40;56.20;;;;;;6313853;28;20275;-67
2022/04/19 14:09:59;;;;;;;1.60;1.50;;;14.40;56.40;;;;;;6312876;28;20291;-68
2022/04/19 14:13:06;;;;;;;1.30;1.20;;;14.20;56.70;;;;;;6312846;28;20294;-67
2022/04/19 14:16:11;;;;;;;1.30;1.30;;;14.20;57.00;;;;;;6313230;28;20507;-67
2022/04/19 14:19:24;;;;;;;1.58;1.50;;;14.20;57.20;;;;;;6312289;28;20294;-67
2022/04/19 14:22:29;;;;;;;1.60;1.50;;;14.10;57.40;;;;;;6312786;28;20295;-68
2022/04/19 14:25:35;;;;;;;1.55;1.55;;;14.20;57.20;;;;;;6312668;28;20290;-67
2022/04/19 14:35:33;;;;;;;1.70;1.60;;;14.00;57.60;;;;;;6239216;28;20554;-68
2022/04/19 14:38:39;;;;;;;2.05;1.42;;;14.00;57.70;;;;;;6312418;28;20298;-69
2022/04/19 14:41:44;;;;;;;4.07;1.52;;;13.90;57.90;;;;;;6312381;28;20270;-68
2022/04/19 14:44:50;;;;;;;3.20;1.60;;;13.80;58.10;;;;;;6312165;28;20302;-68
2022/04/19 14:47:56;;;;;;;1.70;1.60;;;13.80;58.40;;;;;;6312943;28;20357;-69
2022/04/19 14:54:25;;;;;;;1.50;1.50;;;13.80;58.90;;;;;;6311938;28;20298;-68
2022/04/19 14:57:30;;;;;;;1.60;1.50;;;13.70;58.90;;;;;;6311945;28;20290;-68
2022/04/19 15:00:36;;;;;;;1.58;1.58;;;13.70;58.90;;;;;;6312224;28;20577;-68
2022/04/19 15:03:41;;;;;;;1.70;1.60;;;13.70;59.00;;;;;;6311894;28;20294;-67
2022/04/19 15:06:47;;;;;;;1.30;1.30;;;13.70;59.10;;;;;;6311194;28;20271;-68
2022/04/19 15:09:53;;;;;;;4.40;1.50;;;13.60;59.70;;;;;;6311227;28;20290;-69
2022/04/19 15:12:58;;;;;;;1.27;1.27;;;13.60;59.60;;;;;;6311634;28;20294;-68
2022/04/19 15:16:03;;;;;;;1.70;1.60;;;13.50;59.90;;;;;;6312003;28;20513;-68
2022/04/19 15:19:09;;;;;;;1.77;1.63;;;13.50;60.70;;;;;;6311299;28;20294;-67
2022/04/19 15:22:17;;;;;;;1.25;1.25;;;13.40;60.60;;;;;;6311087;28;20653;-67
2022/04/19 15:25:23;;;;;;;4.45;1.58;;;13.30;61.10;;;;;;6311820;28;20291;-67
2022/04/19 15:28:31;;;;;;;1.45;1.40;;;13.30;61.20;;;;;;6310743;28;20302;-68
2022/04/19 15:31:36;;;;;;;1.48;1.38;;;13.30;61.10;;;;;;6311602;28;20271;-68
2022/04/19 15:34:42;;;;;;;1.88;1.77;;;13.40;60.60;;;;;;6311328;28;20290;-69
2022/04/19 15:37:48;;;;;;;1.25;1.20;;;13.40;60.20;;;;;;6311079;28;20298;-69
2022/04/19 15:40:55;;;;;;;3.72;1.40;;;13.30;60.40;;;;;;6311215;28;20270;-69
2022/04/19 15:44:01;;;;;;;1.65;1.50;;;13.30;60.20;;;;;;6310810;28;20593;-69
2022/04/19 15:47:07;;;;;;;1.63;1.50;;;13.30;59.80;;;;;;6310426;28;20270;-68
2022/04/19 15:50:12;;;;;;;4.93;1.55;;;13.20;60.00;;;;;;6310897;28;20267;-68
2022/04/19 15:53:19;;;;;;;1.30;1.30;;;13.20;60.00;;;;;;6310364;28;20303;-68
2022/04/19 15:56:25;;;;;;;1.30;1.30;;;13.10;60.30;;;;;;6310995;28;20565;-68
2022/04/19 15:59:31;;;;;;;1.50;1.40;;;13.00;60.10;;;;;;6310734;28;20298;-67
2022/04/19 16:02:36;;;;;;;1.50;1.50;;;13.00;60.10;;;;;;6310325;28;20290;-67
2022/04/19 16:05:41;;;;;;;2.28;1.30;;;13.00;60.10;;;;;;6311324;28;20290;-69
2022/04/19 16:08:48;;;;;;;1.63;1.50;;;13.00;60.30;;;;;;6310235;28;20299;-68
2022/04/19 16:11:53;;;;;;;1.92;1.92;;;12.90;60.90;;;;;;6311003;28;20262;-68
2022/04/19 16:14:58;;;;;;;5.28;4.93;;;12.90;61.00;;;;;;6310456;28;20303;-68
2022/04/19 16:24:51;;;;;;;1.40;1.40;;;12.70;61.30;;;;;;6310198;28;20314;-68
2022/04/19 16:27:56;;;;;;;1.20;1.20;;;12.70;61.50;;;;;;6309958;28;20617;-69
2022/04/19 16:31:05;;;;;;;1.40;1.40;;;12.60;61.80;;;;;;6326351;28;20498;-68
2022/04/19 16:34:12;;;;;;;1.55;1.40;;;12.60;61.90;;;;;;6310042;28;20306;-69
2022/04/19 16:37:23;;;;;;;1.55;1.50;;;12.60;61.70;;;;;;6310353;28;20310;-68
2022/04/19 16:40:29;;;;;;;1.38;1.38;;;12.50;61.80;;;;;;6310008;28;20270;-68
2022/04/19 16:43:37;;;;;;;1.60;1.60;;;12.50;62.10;;;;;;6310041;28;20295;-68
2022/04/19 16:46:42;;;;;;;2.15;1.60;;;12.50;62.50;;;;;;6310099;28;20482;-68
2022/04/19 16:49:48;;;;;;;1.75;1.70;;;12.50;63.00;;;;;;6310265;28;20290;-65
2022/04/19 16:52:53;;;;;;;2.17;1.60;;;12.30;63.70;;;;;;6309644;28;20462;-65
2022/04/19 16:56:00;;;;;;;6.93;1.83;;;12.40;63.00;;;;;;6310454;28;20274;-65
2022/04/19 16:59:06;;;;;;;1.45;1.40;;;12.50;62.60;;;;;;6309888;28;20302;-65
2022/04/19 17:02:12;;;;;;;1.70;1.58;;;12.50;62.30;;;;;;6309753;28;20270;-67
2022/04/19 17:05:17;;;;;;;1.58;1.50;;;12.50;62.40;;;;;;6310239;28;20298;-68
2022/04/19 17:08:22;;;;;;;4.65;1.52;;;12.40;62.20;;;;;;6308894;28;20812;-68
2022/04/19 17:11:30;;;;;;;2.13;1.30;;;12.40;62.50;;;;;;6309664;28;20263;-68
2022/04/19 17:14:35;;;;;;;3.70;1.90;;;12.50;62.10;;;;;;6309742;28;20290;-68
2022/04/19 17:17:40;;;;;;;1.88;1.52;;;12.50;62.00;;;;;;6309749;28;20286;-68
2022/04/19 17:20:46;;;;;;;2.95;1.42;;;12.50;61.90;;;;;;6310329;28;20292;-68
2022/04/19 17:23:51;;;;;;;4.38;1.63;;;12.40;62.00;;;;;;6309959;28;20293;-68
2022/04/19 17:26:58;;;;;;;8.32;1.80;;;12.40;62.00;;;;;;6310144;28;20306;-68
2022/04/19 17:30:04;;;;;;;6.07;1.63;;;12.30;62.40;;;;;;6309456;28;20270;-67